Terminal Aerodrome Forecast
Issued by NWS

Home | Current Version | Previous Version | Graphics & Text | Print | Product List | Glossary On
Versions: 1 2 3 4 5 6 7 8 9 10 11 12 13 14 15 16 17 18 19 20 21
000
FTUS43 KUNR 151700
TAFGCC
TAF
KGCC 151720Z 1518/1618 26014KT P6SM BKN100
     FM160100 31016G26KT P6SM -RA BKN025
     FM160400 33020G30KT 1SM -SN VV008
     FM161000 31020G30KT 5SM -SHSN BKN015=

USA.gov is the U.S. government's official web portal to all federal, state and local government web resources and services.